createdAt,value
2022-09-01T00:00:13.663Z,75.08
2022-09-01T00:02:43.477Z,72.81
2022-09-01T00:05:11.119Z,71.76
2022-09-01T00:07:38.646Z,71.07
2022-09-01T00:10:08.976Z,72.29
2022-09-01T00:12:39.168Z,69.77
2022-09-01T00:15:10.186Z,71.09
2022-09-01T00:17:37.854Z,69.90
2022-09-01T00:20:06.923Z,69.97
2022-09-01T00:22:34.340Z,69.74
2022-09-01T00:25:02.363Z,69.89
2022-09-01T00:27:31.211Z,70.08
2022-09-01T00:29:59.699Z,70.54
2022-09-01T00:32:28.020Z,71.26
2022-09-01T00:34:55.636Z,70.95
2022-09-01T00:37:23.141Z,70.63
2022-09-01T00:39:50.657Z,71.00
2022-09-01T00:42:18.141Z,70.86
2022-09-01T00:44:46.282Z,72.29
2022-09-01T00:47:15.208Z,71.51
2022-09-01T00:49:47.497Z,73.84
2022-09-01T00:52:29.831Z,74.27
2022-09-01T00:55:04.298Z,73.88
2022-09-01T00:57:31.826Z,72.33
2022-09-01T01:00:11.956Z,77.06
2022-09-01T01:02:41.117Z,73.13
2022-09-01T01:05:12.634Z,72.06
2022-09-01T01:07:48.021Z,72.43
2022-09-01T01:10:17.996Z,70.80
2022-09-01T01:12:45.658Z,69.66
2022-09-01T01:15:14.487Z,71.47
2022-09-01T01:17:41.973Z,70.62
2022-09-01T01:20:30.303Z,71.18
2022-09-01T01:23:17.053Z,75.32
2022-09-01T01:25:55.530Z,79.23
2022-09-01T01:28:27.326Z,81.72
2022-09-01T01:31:01.877Z,78.86
2022-09-01T01:33:42.727Z,75.75
2022-09-01T01:36:17.563Z,72.92
2022-09-01T01:38:49.041Z,78.57
2022-09-01T01:41:20.096Z,74.03
2022-09-01T01:43:51.327Z,78.03
2022-09-01T01:46:20.705Z,86.01
2022-09-01T01:48:52.603Z,81.43
2022-09-01T01:51:25.359Z,86.11
2022-09-01T01:53:53.761Z,91.14
2022-09-01T01:56:25.870Z,93.32
2022-09-01T01:58:55.700Z,94.48
2022-09-01T02:01:26.188Z,94.56
2022-09-01T02:03:55.061Z,89.80
2022-09-01T02:06:25.379Z,92.10
2022-09-01T02:08:58.355Z,93.43
2022-09-01T02:11:26.683Z,89.91
2022-09-01T02:13:57.678Z,90.59
2022-09-01T02:16:28.270Z,93.58
2022-09-01T02:18:57.223Z,96.56
2022-09-01T02:21:27.342Z,98.96
2022-09-01T02:24:02.322Z,100.00
2022-09-01T02:26:42.492Z,100.00
2022-09-01T02:29:18.225Z,100.00
2022-09-01T02:31:48.505Z,100.00
2022-09-01T02:34:17.371Z,100.00
2022-09-01T02:36:50.579Z,100.00
2022-09-01T02:39:29.314Z,100.00
2022-09-01T02:41:57.447Z,100.00
2022-09-01T02:44:29.469Z,100.00
2022-09-01T02:46:57.982Z,100.00
2022-09-01T02:49:30.121Z,100.00
2022-09-01T02:52:01.977Z,100.00
2022-09-01T02:54:32.038Z,100.00
2022-09-01T02:57:00.083Z,100.00
2022-09-01T02:59:30.139Z,100.00
2022-09-01T03:02:00.389Z,100.00
2022-09-01T03:04:35.163Z,100.00
2022-09-01T03:07:07.455Z,100.00
2022-09-01T03:09:35.750Z,100.00
2022-09-01T03:12:03.887Z,100.00
2022-09-01T03:14:33.004Z,100.00
2022-09-01T03:17:00.994Z,100.00
2022-09-01T03:19:32.138Z,100.00
2022-09-01T03:22:00.417Z,100.00
2022-09-01T03:24:32.483Z,100.00
2022-09-01T03:27:01.367Z,100.00
2022-09-01T03:29:28.938Z,100.00
2022-09-01T03:31:56.653Z,100.00
2022-09-01T03:34:24.420Z,100.00
2022-09-01T03:36:54.659Z,100.00
2022-09-01T03:39:30.005Z,100.00
2022-09-01T03:41:59.161Z,100.00
2022-09-01T03:44:27.704Z,100.00
2022-09-01T03:46:55.796Z,100.00
2022-09-01T03:49:28.028Z,100.00
2022-09-01T03:51:57.664Z,100.00
2022-09-01T03:54:27.583Z,100.00
2022-09-01T03:56:55.386Z,100.00
2022-09-01T03:59:25.804Z,100.00
2022-09-01T04:01:53.744Z,100.00
2022-09-01T04:04:22.229Z,100.00
2022-09-01T04:06:49.952Z,100.00
2022-09-01T04:09:17.775Z,100.00
2022-09-01T04:11:46.550Z,100.00
2022-09-01T04:14:15.872Z,100.00
2022-09-01T04:17:02.950Z,100.00
2022-09-01T04:19:37.227Z,100.00
2022-09-01T04:22:05.879Z,100.00
2022-09-01T04:24:45.085Z,100.00
2022-09-01T04:27:14.218Z,100.00
2022-09-01T04:29:43.035Z,100.00
2022-09-01T04:32:13.369Z,100.00
2022-09-01T04:34:51.239Z,100.00
2022-09-01T04:37:21.602Z,100.00
2022-09-01T04:39:59.605Z,100.00
2022-09-01T04:42:30.112Z,100.00
2022-09-01T04:45:02.146Z,100.00
2022-09-01T04:47:45.722Z,100.00
2022-09-01T04:50:18.218Z,100.00
2022-09-01T04:53:06.477Z,100.00
2022-09-01T04:55:45.416Z,100.00
2022-09-01T04:58:18.099Z,100.00
2022-09-01T05:00:52.470Z,100.00
2022-09-01T05:03:24.790Z,100.00
2022-09-01T05:06:05.995Z,100.00
2022-09-01T05:08:36.372Z,100.00
2022-09-01T05:11:19.060Z,100.00
2022-09-01T05:13:49.628Z,100.00
2022-09-01T05:16:25.204Z,100.00
2022-09-01T05:18:57.321Z,97.43
2022-09-01T05:21:30.027Z,100.00
2022-09-01T05:24:01.664Z,100.00
2022-09-01T05:26:32.328Z,100.00
2022-09-01T05:29:02.712Z,100.00
2022-09-01T05:31:38.277Z,100.00
2022-09-01T05:34:09.959Z,100.00
2022-09-01T05:36:42.481Z,100.00
2022-09-01T05:39:12.482Z,100.00
2022-09-01T05:41:41.662Z,100.00
2022-09-01T05:44:11.486Z,100.00
2022-09-01T05:46:40.185Z,100.00
2022-09-01T05:49:16.417Z,100.00
2022-09-01T05:51:50.505Z,100.00
2022-09-01T05:54:27.579Z,100.00
2022-09-01T05:57:13.092Z,100.00
2022-09-01T05:59:54.243Z,100.00
2022-09-01T06:02:27.582Z,100.00
2022-09-01T06:04:57.598Z,100.00
2022-09-01T06:07:31.073Z,100.00
2022-09-01T06:10:01.220Z,100.00
2022-09-01T06:12:30.959Z,100.00
2022-09-01T06:14:59.351Z,100.00
2022-09-01T06:17:29.185Z,100.00
2022-09-01T06:20:01.203Z,100.00
2022-09-01T06:22:30.979Z,100.00
2022-09-01T06:25:03.235Z,100.00
2022-09-01T06:27:42.903Z,100.00
2022-09-01T06:30:21.326Z,100.00
2022-09-01T06:33:02.250Z,100.00
2022-09-01T06:35:32.675Z,100.00
2022-09-01T06:38:02.195Z,100.00
2022-09-01T06:40:54.618Z,100.00
2022-09-01T06:43:23.530Z,100.00
2022-09-01T06:45:55.035Z,100.00
2022-09-01T06:48:27.202Z,100.00
2022-09-01T06:51:19.969Z,100.00
2022-09-01T06:53:56.914Z,100.00
2022-09-01T06:56:32.282Z,100.00
2022-09-01T06:59:06.329Z,100.00
2022-09-01T07:01:39.240Z,100.00
2022-09-01T07:04:12.917Z,100.00
2022-09-01T07:09:47.578Z,100.00
2022-09-01T07:12:38.303Z,100.00
2022-09-01T07:17:56.793Z,100.00
2022-09-01T07:20:27.818Z,100.00
2022-09-01T07:23:06.471Z,100.00
2022-09-01T07:26:01.526Z,100.00
2022-09-01T07:28:36.393Z,100.00
2022-09-01T07:34:37.629Z,100.00
2022-09-01T07:39:51.524Z,100.00
2022-09-01T07:46:00.550Z,100.00
2022-09-01T07:51:36.824Z,100.00
2022-09-01T07:54:06.192Z,100.00
2022-09-01T07:56:39.777Z,100.00
2022-09-01T07:59:15.092Z,100.00
2022-09-01T08:02:06.208Z,100.00
2022-09-01T08:04:34.854Z,100.00
2022-09-01T08:07:04.522Z,100.00
2022-09-01T08:09:38.239Z,100.00
2022-09-01T08:12:12.559Z,100.00
2022-09-01T08:14:46.926Z,100.00
2022-09-01T08:17:33.108Z,100.00
2022-09-01T08:20:12.979Z,100.00
2022-09-01T08:22:53.594Z,100.00
2022-09-01T08:25:26.539Z,100.00
2022-09-01T08:28:02.688Z,100.00
2022-09-01T08:30:32.790Z,100.00
2022-09-01T08:33:10.848Z,100.00
2022-09-01T08:35:44.720Z,100.00
2022-09-01T08:38:13.156Z,100.00
2022-09-01T08:40:43.476Z,100.00
2022-09-01T08:43:25.289Z,100.00
2022-09-01T08:46:02.826Z,100.00
2022-09-01T08:52:02.868Z,100.00
2022-09-01T08:54:45.518Z,100.00
2022-09-01T08:57:23.263Z,100.00
2022-09-01T09:00:17.041Z,99.86
2022-09-01T09:03:06.170Z,99.61
2022-09-01T09:05:43.742Z,100.00
2022-09-01T09:08:14.239Z,99.83
2022-09-01T09:11:10.968Z,100.00
2022-09-01T09:14:11.628Z,99.36
2022-09-01T09:16:43.346Z,98.04
2022-09-01T09:19:30.658Z,96.39
2022-09-01T09:22:02.017Z,98.88
2022-09-01T09:24:47.636Z,98.74
2022-09-01T09:27:30.201Z,100.00
2022-09-01T09:30:07.309Z,100.00
2022-09-01T09:33:46.708Z,100.00
2022-09-01T09:35:57.862Z,100.00
2022-09-01T09:38:29.534Z,100.00
2022-09-01T09:41:20.312Z,100.00
2022-09-01T09:43:59.146Z,100.00
2022-09-01T09:46:33.058Z,100.00
2022-09-01T09:49:36.717Z,98.13
2022-09-01T09:52:16.466Z,100.00
2022-09-01T09:55:24.485Z,99.44
2022-09-01T09:57:55.597Z,100.00
2022-09-01T10:00:34.508Z,100.00
2022-09-01T10:03:10.868Z,100.00
2022-09-01T10:05:44.401Z,99.46
2022-09-01T10:08:16.520Z,100.00
2022-09-01T10:10:57.470Z,100.00
2022-09-01T10:13:33.024Z,99.42
2022-09-01T10:16:03.689Z,98.64
2022-09-01T10:18:45.340Z,99.08
2022-09-01T10:21:17.659Z,99.60
2022-09-01T10:23:45.203Z,98.34
2022-09-01T10:26:24.515Z,100.00
2022-09-01T10:29:16.942Z,100.00
2022-09-01T10:31:44.524Z,98.11
2022-09-01T10:34:19.507Z,97.77
2022-09-01T10:36:55.781Z,95.47
2022-09-01T10:39:28.327Z,94.52
2022-09-01T10:42:07.703Z,94.18
2022-09-01T10:44:57.765Z,94.44
2022-09-01T10:47:38.223Z,94.54
2022-09-01T10:50:26.266Z,94.08
2022-09-01T10:52:56.409Z,92.16
2022-09-01T10:55:29.454Z,91.62
2022-09-01T11:01:11.911Z,89.42
2022-09-01T11:04:10.013Z,89.02
2022-09-01T11:07:11.673Z,90.01
2022-09-01T11:09:36.555Z,88.38
2022-09-01T11:12:16.696Z,87.92
2022-09-01T11:15:00.407Z,89.97
2022-09-01T11:17:36.655Z,91.02
2022-09-01T11:20:23.446Z,89.72
2022-09-01T11:23:28.029Z,91.91
2022-09-01T11:28:47.775Z,87.34
2022-09-01T11:31:24.681Z,89.82
2022-09-01T11:34:14.861Z,89.57
2022-09-01T11:36:48.302Z,89.81
2022-09-01T11:39:19.046Z,89.54
2022-09-01T11:42:14.977Z,86.81
2022-09-01T11:44:52.095Z,86.64
2022-09-01T11:47:29.806Z,85.94
2022-09-01T11:50:01.230Z,85.78
2022-09-01T11:52:36.607Z,85.36
2022-09-01T11:55:07.293Z,85.36
2022-09-01T11:57:41.074Z,85.06
2022-09-01T12:00:12.319Z,84.27
2022-09-01T12:02:50.171Z,83.96
2022-09-01T12:05:34.014Z,83.48
2022-09-01T12:08:14.616Z,82.31
2022-09-01T12:10:44.649Z,81.13
2022-09-01T12:13:23.498Z,81.94
2022-09-01T12:16:17.367Z,83.54
2022-09-01T12:18:51.750Z,81.33
2022-09-01T12:21:44.265Z,82.39
2022-09-01T12:24:19.475Z,79.83
2022-09-01T12:26:49.843Z,81.23
2022-09-01T12:29:18.302Z,81.45
2022-09-01T12:31:48.895Z,82.22
2022-09-01T12:34:34.767Z,86.11
2022-09-01T12:37:25.645Z,85.29
2022-09-01T12:39:58.268Z,94.25
2022-09-01T12:42:40.973Z,100.00
2022-09-01T12:45:11.276Z,100.00
2022-09-01T12:47:41.139Z,100.00
2022-09-01T12:50:11.967Z,100.00
2022-09-01T12:52:54.399Z,100.00
2022-09-01T12:58:22.645Z,100.00
2022-09-01T13:01:07.170Z,100.00
2022-09-01T13:03:43.854Z,100.00
2022-09-01T13:06:11.713Z,100.00
2022-09-01T13:08:40.109Z,100.00
2022-09-01T13:11:11.278Z,100.00
2022-09-01T13:13:39.123Z,100.00
2022-09-01T13:16:14.198Z,100.00
2022-09-01T13:21:32.463Z,100.00
2022-09-01T13:24:00.286Z,100.00
2022-09-01T13:26:31.611Z,100.00
2022-09-01T13:29:00.225Z,100.00
2022-09-01T13:31:30.341Z,100.00
2022-09-01T13:34:22.269Z,100.00
2022-09-01T13:36:51.052Z,100.00
2022-09-01T13:39:20.586Z,100.00
2022-09-01T13:41:49.643Z,100.00
2022-09-01T13:44:18.825Z,100.00
2022-09-01T13:49:44.031Z,100.00
2022-09-01T13:52:22.191Z,100.00
2022-09-01T13:54:49.595Z,100.00
2022-09-01T13:57:18.151Z,100.00
2022-09-01T13:59:45.671Z,100.00
2022-09-01T14:02:13.286Z,100.00
2022-09-01T14:04:40.791Z,100.00
2022-09-01T14:07:08.348Z,100.00
2022-09-01T14:09:35.855Z,100.00
2022-09-01T14:12:03.599Z,100.00
2022-09-01T14:17:19.203Z,100.00
2022-09-01T14:19:51.294Z,100.00
2022-09-01T14:22:18.862Z,100.00
2022-09-01T14:24:46.373Z,100.00
2022-09-01T14:27:16.171Z,100.00
2022-09-01T14:32:10.182Z,100.00
2022-09-01T14:34:37.822Z,100.00
2022-09-01T14:37:05.845Z,100.00
2022-09-01T14:39:34.129Z,100.00
2022-09-01T14:42:01.639Z,100.00
2022-09-01T14:44:29.165Z,100.00
2022-09-01T14:46:56.644Z,100.00
2022-09-01T14:49:24.228Z,100.00
2022-09-01T14:54:42.734Z,100.00
2022-09-01T14:59:59.952Z,100.00
2022-09-01T15:02:28.986Z,100.00
2022-09-01T15:04:57.360Z,100.00
2022-09-01T15:07:25.070Z,100.00
2022-09-01T15:09:53.028Z,100.00
2022-09-01T15:12:20.872Z,100.00
2022-09-01T15:14:48.511Z,100.00
2022-09-01T15:17:15.967Z,100.00
2022-09-01T15:19:43.624Z,100.00
2022-09-01T15:22:14.713Z,100.00
2022-09-01T15:24:43.361Z,100.00
2022-09-01T15:27:11.740Z,100.00
2022-09-01T15:29:45.912Z,100.00
2022-09-01T15:32:15.249Z,100.00
2022-09-01T15:34:51.306Z,100.00
2022-09-01T15:37:18.797Z,100.00
2022-09-01T15:39:46.205Z,100.00
2022-09-01T15:42:13.673Z,100.00
2022-09-01T15:44:41.198Z,100.00
2022-09-01T15:47:08.636Z,100.00
2022-09-01T15:49:36.653Z,100.00
2022-09-01T15:52:04.262Z,100.00
2022-09-01T15:54:31.901Z,100.00
2022-09-01T15:56:59.411Z,100.00
2022-09-01T15:59:26.941Z,100.00
2022-09-01T16:01:57.870Z,100.00
2022-09-01T16:04:28.005Z,100.00
2022-09-01T16:06:56.937Z,100.00
2022-09-01T16:09:26.130Z,100.00
2022-09-01T16:11:54.361Z,100.00
2022-09-01T16:14:23.843Z,100.00
2022-09-01T16:17:02.533Z,100.00
2022-09-01T16:20:00.210Z,100.00
2022-09-01T16:22:29.622Z,100.00
2022-09-01T16:25:01.574Z,100.00
2022-09-01T16:27:36.038Z,100.00
2022-09-01T16:30:13.390Z,100.00
2022-09-01T16:32:46.470Z,100.00
2022-09-01T16:35:16.703Z,100.00
2022-09-01T16:37:49.869Z,100.00
2022-09-01T16:40:42.924Z,100.00
2022-09-01T16:43:31.920Z,100.00
2022-09-01T16:46:02.027Z,100.00
2022-09-01T16:48:35.512Z,100.00
2022-09-01T16:51:06.869Z,100.00
2022-09-01T16:53:52.755Z,100.00
2022-09-01T16:56:35.036Z,100.00
2022-09-01T16:59:27.285Z,100.00
2022-09-01T17:02:01.843Z,100.00
2022-09-01T17:04:47.734Z,100.00
2022-09-01T17:07:16.947Z,100.00
2022-09-01T17:10:05.294Z,100.00
2022-09-01T17:12:50.768Z,100.00
2022-09-01T17:15:26.775Z,100.00
2022-09-01T17:18:22.501Z,100.00
2022-09-01T17:21:21.335Z,100.00
2022-09-01T17:23:58.131Z,100.00
2022-09-01T17:26:28.752Z,100.00
2022-09-01T17:29:10.552Z,100.00
2022-09-01T17:32:00.138Z,100.00
2022-09-01T17:34:42.692Z,100.00
2022-09-01T17:37:43.231Z,100.00
2022-09-01T17:40:22.057Z,100.00
2022-09-01T17:43:05.366Z,100.00
2022-09-01T17:45:51.455Z,100.00
2022-09-01T17:48:32.182Z,100.00
2022-09-01T17:51:36.191Z,100.00
2022-09-01T17:54:51.997Z,100.00
2022-09-01T17:57:38.458Z,100.00
2022-09-01T18:00:26.019Z,100.00
2022-09-01T18:03:02.612Z,100.00
2022-09-01T18:05:39.463Z,100.00
2022-09-01T18:08:37.898Z,100.00
2022-09-01T18:11:15.249Z,100.00
2022-09-01T18:14:21.202Z,100.00
2022-09-01T18:16:48.633Z,100.00
2022-09-01T18:19:24.659Z,100.00
2022-09-01T18:22:01.777Z,100.00
2022-09-01T18:24:41.172Z,100.00
2022-09-01T18:27:09.503Z,100.00
2022-09-01T18:29:36.994Z,100.00
2022-09-01T18:32:18.146Z,100.00
2022-09-01T18:35:08.591Z,100.00
2022-09-01T18:38:12.352Z,100.00
2022-09-01T18:41:27.599Z,100.00
2022-09-01T18:44:22.971Z,100.00
2022-09-01T18:47:17.439Z,100.00
2022-09-01T18:50:19.343Z,100.00
2022-09-01T18:53:30.186Z,100.00
2022-09-01T18:56:20.313Z,100.00
2022-09-01T18:58:53.587Z,100.00
2022-09-01T19:01:33.053Z,100.00
2022-09-01T19:04:29.238Z,100.00
2022-09-01T19:07:10.875Z,100.00
2022-09-01T19:09:51.249Z,100.00
2022-09-01T19:12:39.850Z,100.00
2022-09-01T19:15:12.225Z,100.00
2022-09-01T19:17:58.631Z,100.00
2022-09-01T19:20:58.114Z,100.00
2022-09-01T19:23:46.648Z,100.00
2022-09-01T19:26:23.096Z,100.00
2022-09-01T19:29:04.896Z,100.00
2022-09-01T19:31:36.947Z,100.00
2022-09-01T19:34:15.284Z,100.00
2022-09-01T19:36:55.540Z,100.00
2022-09-01T19:39:26.973Z,100.00
2022-09-01T19:42:02.542Z,100.00
2022-09-01T19:44:56.045Z,100.00
2022-09-01T19:48:08.266Z,100.00
2022-09-01T19:50:41.342Z,100.00
2022-09-01T19:53:21.382Z,100.00
2022-09-01T19:56:08.041Z,100.00
2022-09-01T19:58:54.808Z,100.00
2022-09-01T20:01:46.717Z,100.00
2022-09-01T20:04:27.757Z,100.00
2022-09-01T20:07:00.557Z,100.00
2022-09-01T20:09:46.599Z,100.00
2022-09-01T20:12:32.628Z,100.00
2022-09-01T20:15:11.432Z,100.00
2022-09-01T20:17:57.327Z,100.00
2022-09-01T20:20:43.712Z,100.00
2022-09-01T20:23:33.028Z,100.00
2022-09-01T20:26:40.066Z,100.00
2022-09-01T20:29:24.732Z,100.00
2022-09-01T20:31:57.619Z,100.00
2022-09-01T20:34:52.176Z,100.00
2022-09-01T20:37:43.571Z,100.00
2022-09-01T20:40:14.054Z,100.00
2022-09-01T20:43:11.485Z,100.00
2022-09-01T20:45:39.446Z,100.00
2022-09-01T20:48:14.662Z,100.00
2022-09-01T20:50:44.951Z,100.00
2022-09-01T20:53:12.430Z,100.00
2022-09-01T20:55:48.407Z,100.00
2022-09-01T20:58:46.301Z,100.00
2022-09-01T21:01:46.644Z,100.00
2022-09-01T21:04:36.130Z,100.00
2022-09-01T21:07:14.138Z,100.00
2022-09-01T21:09:47.404Z,100.00
2022-09-01T21:12:14.878Z,100.00
2022-09-01T21:15:08.739Z,100.00
2022-09-01T21:17:43.748Z,100.00
2022-09-01T21:20:32.953Z,100.00
2022-09-01T21:23:01.448Z,100.00
2022-09-01T21:25:31.187Z,100.00
2022-09-01T21:28:02.505Z,100.00
2022-09-01T21:30:35.725Z,100.00
2022-09-01T21:33:04.731Z,100.00
2022-09-01T21:35:32.431Z,100.00
2022-09-01T21:37:59.870Z,100.00
2022-09-01T21:40:27.556Z,100.00
2022-09-01T21:43:00.525Z,100.00
2022-09-01T21:45:28.316Z,100.00
2022-09-01T21:47:56.276Z,100.00
2022-09-01T21:50:25.643Z,100.00
2022-09-01T21:52:53.164Z,100.00
2022-09-01T21:55:23.494Z,100.00
2022-09-01T21:57:52.106Z,100.00
2022-09-01T22:00:23.354Z,100.00
2022-09-01T22:02:51.207Z,100.00
2022-09-01T22:05:18.858Z,100.00
2022-09-01T22:07:47.977Z,100.00
2022-09-01T22:10:18.629Z,100.00
2022-09-01T22:12:47.739Z,100.00
2022-09-01T22:15:19.136Z,100.00
2022-09-01T22:17:47.839Z,100.00
2022-09-01T22:20:18.824Z,100.00
2022-09-01T22:22:47.267Z,100.00
2022-09-01T22:25:20.935Z,100.00
2022-09-01T22:27:48.360Z,100.00
2022-09-01T22:30:16.954Z,100.00
2022-09-01T22:32:45.616Z,100.00
2022-09-01T22:35:15.095Z,100.00
2022-09-01T22:37:42.724Z,100.00
2022-09-01T22:40:11.756Z,100.00
2022-09-01T22:42:39.235Z,100.00
2022-09-01T22:45:08.796Z,100.00
2022-09-01T22:47:38.496Z,100.00
2022-09-01T22:50:07.827Z,100.00
2022-09-01T22:52:37.287Z,100.00
2022-09-01T22:55:06.507Z,100.00
2022-09-01T22:57:34.593Z,100.00
2022-09-01T23:00:02.130Z,100.00
2022-09-01T23:02:31.615Z,100.00
2022-09-01T23:04:59.075Z,100.00
2022-09-01T23:07:26.589Z,100.00
2022-09-01T23:09:53.998Z,100.00
2022-09-01T23:12:22.179Z,100.00
2022-09-01T23:14:49.977Z,100.00
2022-09-01T23:17:17.458Z,100.00
2022-09-01T23:19:44.976Z,100.00
2022-09-01T23:22:12.442Z,100.00
2022-09-01T23:24:39.917Z,100.00
2022-09-01T23:27:07.455Z,100.00
2022-09-01T23:29:38.127Z,100.00
2022-09-01T23:32:05.831Z,100.00
2022-09-01T23:34:33.438Z,100.00
2022-09-01T23:37:00.899Z,100.00
2022-09-01T23:39:28.393Z,100.00
2022-09-01T23:41:55.905Z,100.00
2022-09-01T23:44:23.895Z,100.00
2022-09-01T23:46:51.352Z,100.00
2022-09-01T23:49:19.688Z,100.00
2022-09-01T23:51:47.953Z,100.00
2022-09-01T23:54:15.996Z,100.00
2022-09-01T23:56:43.508Z,100.00
2022-09-01T23:59:11.015Z,100.00
